Meteo Giornale » Osservazioni meteo Italia » Decimomannu

ore: 19:55 - Osservazioni Meteo Decimomannu
Lat. 39° 21' N Lon. 8° 58' E Alt. 29 metri s.l.m.

nuvoloso Europe/Rome

12 °C

Nuvoloso

Temp. 24 Ore

5 °C

17 °C

Nord

11.1 Km/h

Dew point 9 °C

Umidità 81 %

Visibilità  10 Km

Il sole sorge alle ore 07:06

Il sole tramonta alle ore 18:08

Data e Ora Cielo e Fenomeni T °C DP °C Um. % Pres. hPa Vis. km Vento km/h
Oggi h: 19:55 nuvoloso Nuvoloso 12 9 81 1025 10 N 11.1
Oggi h: 18:55 nuvoloso Nuvoloso 13 10 81 1025 10 NO 16.7
Oggi h: 16:55 poco_nuvoloso Poco Nuvoloso 16 9 63 1024 10 NO 27.8
Oggi h: 15:55 poco_nuvoloso Poco Nuvoloso 17 9 59 1024 10 NO 27.8
Oggi h: 14:55 poco_nuvoloso Poco Nuvoloso 17 9 59 1024 10 NO 24
Oggi h: 12:55 poco_nuvoloso Poco Nuvoloso 16 9 63 1025 10 N/NO 24
Oggi h: 10:55 poco_nuvoloso Poco Nuvoloso 15 9 67 1026 10 N/NO 27.8
Oggi h: 09:55 poco_nuvoloso Poco Nuvoloso 12 8 76 1026 10 N/NO 14.8
Oggi h: 08:55 poco_nuvoloso Poco Nuvoloso 8 5 81 1025 10 NO 7.4
Oggi h: 07:55 poco_nuvoloso Poco Nuvoloso 5 2 80 1025 10 N 1.8
Oggi h: 06:55 nuvoloso Nuvoloso 5 2 80 1025 10 N 5.5
Oggi h: 05:55 nuvoloso Nuvoloso 5 2 80 1025 10 N 5.5
Oggi h: 04:55 molto_nuvoloso Molto Nuvoloso 6 3 81 1025 10 N 5.5
Oggi h: 03:55 molto_nuvoloso Molto Nuvoloso 6 4 86 1025 10 N 3.7
Oggi h: 02:55 molto_nuvoloso Molto Nuvoloso 6 3 81 1025 10 N 5.5
Oggi h: 01:55 nuvoloso Nuvoloso 6 4 86 1025 10 N 7.4
Oggi h: 00:55 nuvoloso Nuvoloso 7 5 87 1025 10 N 3.7
Ieri h: 23:55 nuvoloso Nuvoloso 7 6 93 1025 10 N 5.5
Ieri h: 22:55 sereno Sereno 8 7 93 1025 10 N 5.5
Ieri h: 21:55 sereno Sereno 9 8 93 1025 10 NO 7.4
Ieri h: 20:55 sereno Sereno 10 9 93 1024 10 N/NE 11.1